Andersontown, Pennsylvania
Current Conditions -  °F | °C
As of 8:56 AM on Thursday 18 Dec 2014 (Local Time) from KCXY Reporting Station
Overcast Overcast  
Wind Chill: 26°   Ceiling: 3700
Heat Index: 34°   Visibility: 10mi
Dew Point: 21°   Wind: 10mph
Humidity: 59%   Direction: 290°WNW
Pressure: 30.12"   Gusts: NA
Location:  40.208°N, 77.0098°W
Report Text: KCXY 181356Z 29009KT 10SM OVC037 01/M06 A3012 RMK AO2 SLP202 T00111061
Loading
Personal Weather Stations






























Interactive Weather Map New forecast layout! Learn more

10-Day Weather Forecast

Advertisements
Track Severe Weather on mobile